sensor_id;sensor_type;location;lat;lon;timestamp;temperature;humidity
612;DHT22;293;53.888;11.464;2022-08-27T00:01:07;22.30;99.90
612;DHT22;293;53.888;11.464;2022-08-27T00:03:34;22.30;99.90
612;DHT22;293;53.888;11.464;2022-08-27T00:06:01;22.20;99.90
612;DHT22;293;53.888;11.464;2022-08-27T00:08:28;22.10;99.90
612;DHT22;293;53.888;11.464;2022-08-27T00:10:56;22.10;99.90
612;DHT22;293;53.888;11.464;2022-08-27T00:13:23;22.20;99.90
612;DHT22;293;53.888;11.464;2022-08-27T00:15:50;22.20;99.90
612;DHT22;293;53.888;11.464;2022-08-27T00:18:17;22.20;99.90
612;DHT22;293;53.888;11.464;2022-08-27T00:20:44;22.20;99.90
612;DHT22;293;53.888;11.464;2022-08-27T00:23:11;22.20;99.90
612;DHT22;293;53.888;11.464;2022-08-27T00:25:38;22.30;99.90
612;DHT22;293;53.888;11.464;2022-08-27T00:28:06;22.30;99.90
612;DHT22;293;53.888;11.464;2022-08-27T00:30:33;22.30;99.90
612;DHT22;293;53.888;11.464;2022-08-27T00:33:00;22.30;99.90
612;DHT22;293;53.888;11.464;2022-08-27T00:35:28;22.30;99.90
612;DHT22;293;53.888;11.464;2022-08-27T00:37:55;22.30;99.90
612;DHT22;293;53.888;11.464;2022-08-27T00:40:22;22.30;99.90
612;DHT22;293;53.888;11.464;2022-08-27T00:42:49;22.30;99.90
612;DHT22;293;53.888;11.464;2022-08-27T00:45:20;22.40;99.90
612;DHT22;293;53.888;11.464;2022-08-27T00:47:50;22.30;99.90
612;DHT22;293;53.888;11.464;2022-08-27T00:50:23;22.30;99.90
612;DHT22;293;53.888;11.464;2022-08-27T00:52:54;22.30;99.90
612;DHT22;293;53.888;11.464;2022-08-27T00:55:24;22.20;99.90
612;DHT22;293;53.888;11.464;2022-08-27T00:57:56;22.20;99.90
612;DHT22;293;53.888;11.464;2022-08-27T01:00:28;22.10;99.90
612;DHT22;293;53.888;11.464;2022-08-27T01:02:55;22.10;99.90
612;DHT22;293;53.888;11.464;2022-08-27T01:05:24;22.00;99.90
612;DHT22;293;53.888;11.464;2022-08-27T01:07:56;21.80;99.90
612;DHT22;293;53.888;11.464;2022-08-27T01:10:26;21.80;99.90
612;DHT22;293;53.888;11.464;2022-08-27T01:12:54;21.70;99.90
612;DHT22;293;53.888;11.464;2022-08-27T01:15:23;21.60;99.90
612;DHT22;293;53.888;11.464;2022-08-27T01:17:52;21.40;99.90
612;DHT22;293;53.888;11.464;2022-08-27T01:20:22;21.30;99.90
612;DHT22;293;53.888;11.464;2022-08-27T01:22:56;21.20;99.90
612;DHT22;293;53.888;11.464;2022-08-27T01:25:26;21.00;99.90
612;DHT22;293;53.888;11.464;2022-08-27T01:27:55;20.90;99.90
612;DHT22;293;53.888;11.464;2022-08-27T01:30:23;20.80;99.90
612;DHT22;293;53.888;11.464;2022-08-27T01:32:50;20.90;99.90
612;DHT22;293;53.888;11.464;2022-08-27T01:35:17;20.90;99.90
612;DHT22;293;53.888;11.464;2022-08-27T01:37:47;20.90;99.90
612;DHT22;293;53.888;11.464;2022-08-27T01:40:16;20.90;99.90
612;DHT22;293;53.888;11.464;2022-08-27T01:42:47;20.90;99.90
612;DHT22;293;53.888;11.464;2022-08-27T01:45:17;20.80;99.90
612;DHT22;293;53.888;11.464;2022-08-27T01:47:44;20.90;99.90
612;DHT22;293;53.888;11.464;2022-08-27T01:50:14;20.80;99.90
612;DHT22;293;53.888;11.464;2022-08-27T01:52:42;20.80;99.90
612;DHT22;293;53.888;11.464;2022-08-27T01:55:11;20.80;99.90
612;DHT22;293;53.888;11.464;2022-08-27T01:57:38;20.60;99.90
612;DHT22;293;53.888;11.464;2022-08-27T02:00:10;20.60;99.90
612;DHT22;293;53.888;11.464;2022-08-27T02:02:38;20.60;99.90
612;DHT22;293;53.888;11.464;2022-08-27T02:05:06;20.60;99.90
612;DHT22;293;53.888;11.464;2022-08-27T02:07:33;20.60;99.90
612;DHT22;293;53.888;11.464;2022-08-27T02:10:00;20.40;99.90
612;DHT22;293;53.888;11.464;2022-08-27T02:12:27;20.50;99.90
612;DHT22;293;53.888;11.464;2022-08-27T02:14:54;20.60;99.90
612;DHT22;293;53.888;11.464;2022-08-27T02:17:22;20.70;99.90
612;DHT22;293;53.888;11.464;2022-08-27T02:19:49;20.70;99.90
612;DHT22;293;53.888;11.464;2022-08-27T02:22:16;20.70;99.90
612;DHT22;293;53.888;11.464;2022-08-27T02:24:43;20.80;99.90
612;DHT22;293;53.888;11.464;2022-08-27T02:27:10;20.90;99.90
612;DHT22;293;53.888;11.464;2022-08-27T02:29:38;21.00;99.90
612;DHT22;293;53.888;11.464;2022-08-27T02:32:05;21.00;99.90
612;DHT22;293;53.888;11.464;2022-08-27T02:34:33;21.10;99.90
612;DHT22;293;53.888;11.464;2022-08-27T02:37:00;21.10;99.90
612;DHT22;293;53.888;11.464;2022-08-27T02:39:27;21.10;99.90
612;DHT22;293;53.888;11.464;2022-08-27T02:41:54;21.20;99.90
612;DHT22;293;53.888;11.464;2022-08-27T02:44:21;21.10;99.90
612;DHT22;293;53.888;11.464;2022-08-27T02:46:48;21.20;99.90
612;DHT22;293;53.888;11.464;2022-08-27T02:49:14;21.20;99.90
612;DHT22;293;53.888;11.464;2022-08-27T02:51:43;21.10;99.90
612;DHT22;293;53.888;11.464;2022-08-27T02:54:10;21.10;99.90
612;DHT22;293;53.888;11.464;2022-08-27T02:56:37;21.10;99.90
612;DHT22;293;53.888;11.464;2022-08-27T02:59:04;21.20;99.90
612;DHT22;293;53.888;11.464;2022-08-27T03:01:31;21.20;99.90
612;DHT22;293;53.888;11.464;2022-08-27T03:03:58;21.10;99.90
612;DHT22;293;53.888;11.464;2022-08-27T03:06:25;21.10;99.90
612;DHT22;293;53.888;11.464;2022-08-27T03:08:53;21.00;99.90
612;DHT22;293;53.888;11.464;2022-08-27T03:11:20;21.00;99.90
612;DHT22;293;53.888;11.464;2022-08-27T03:13:48;21.00;99.90
612;DHT22;293;53.888;11.464;2022-08-27T03:16:15;21.00;99.90
612;DHT22;293;53.888;11.464;2022-08-27T03:18:42;21.00;99.90
612;DHT22;293;53.888;11.464;2022-08-27T03:21:15;21.00;99.90
612;DHT22;293;53.888;11.464;2022-08-27T03:23:42;21.00;99.90
612;DHT22;293;53.888;11.464;2022-08-27T03:26:12;21.00;99.90
612;DHT22;293;53.888;11.464;2022-08-27T03:28:39;21.10;99.90
612;DHT22;293;53.888;11.464;2022-08-27T03:31:11;21.00;99.90
612;DHT22;293;53.888;11.464;2022-08-27T03:33:40;21.00;99.90
612;DHT22;293;53.888;11.464;2022-08-27T03:36:08;21.00;99.90
612;DHT22;293;53.888;11.464;2022-08-27T03:38:35;21.00;99.90
612;DHT22;293;53.888;11.464;2022-08-27T03:41:03;21.00;99.90
612;DHT22;293;53.888;11.464;2022-08-27T03:43:31;21.00;99.90
612;DHT22;293;53.888;11.464;2022-08-27T03:45:58;21.00;99.90
612;DHT22;293;53.888;11.464;2022-08-27T03:48:25;21.00;99.90
612;DHT22;293;53.888;11.464;2022-08-27T03:50:52;21.00;99.90
612;DHT22;293;53.888;11.464;2022-08-27T03:53:19;21.00;99.90
612;DHT22;293;53.888;11.464;2022-08-27T03:55:46;21.00;99.90
612;DHT22;293;53.888;11.464;2022-08-27T03:58:14;21.10;99.90
612;DHT22;293;53.888;11.464;2022-08-27T04:00:43;21.00;99.90
612;DHT22;293;53.888;11.464;2022-08-27T04:03:11;21.00;99.90
612;DHT22;293;53.888;11.464;2022-08-27T04:05:39;21.00;99.90
612;DHT22;293;53.888;11.464;2022-08-27T04:08:07;21.10;99.90
612;DHT22;293;53.888;11.464;2022-08-27T04:10:35;21.10;99.90
612;DHT22;293;53.888;11.464;2022-08-27T04:13:04;21.10;99.90
612;DHT22;293;53.888;11.464;2022-08-27T04:15:31;21.10;99.90
612;DHT22;293;53.888;11.464;2022-08-27T04:17:59;21.10;99.90
612;DHT22;293;53.888;11.464;2022-08-27T04:20:26;21.00;99.90
612;DHT22;293;53.888;11.464;2022-08-27T04:22:53;21.10;99.90
612;DHT22;293;53.888;11.464;2022-08-27T04:25:20;21.00;99.90
612;DHT22;293;53.888;11.464;2022-08-27T04:27:47;21.00;99.90
612;DHT22;293;53.888;11.464;2022-08-27T04:30:14;21.00;99.90
612;DHT22;293;53.888;11.464;2022-08-27T04:32:41;21.00;99.90
612;DHT22;293;53.888;11.464;2022-08-27T04:35:10;20.90;99.90
612;DHT22;293;53.888;11.464;2022-08-27T04:37:37;21.00;99.90
612;DHT22;293;53.888;11.464;2022-08-27T04:40:05;21.00;99.90
612;DHT22;293;53.888;11.464;2022-08-27T04:42:33;21.00;99.90
612;DHT22;293;53.888;11.464;2022-08-27T04:45:00;21.00;99.90
612;DHT22;293;53.888;11.464;2022-08-27T04:47:27;21.00;99.90
612;DHT22;293;53.888;11.464;2022-08-27T04:49:55;21.00;99.90
612;DHT22;293;53.888;11.464;2022-08-27T04:52:23;21.00;99.90
612;DHT22;293;53.888;11.464;2022-08-27T04:54:51;21.00;99.90
612;DHT22;293;53.888;11.464;2022-08-27T04:57:18;20.90;99.90
612;DHT22;293;53.888;11.464;2022-08-27T04:59:45;21.00;99.90
612;DHT22;293;53.888;11.464;2022-08-27T05:02:12;21.00;99.90
612;DHT22;293;53.888;11.464;2022-08-27T05:04:39;21.00;99.90
612;DHT22;293;53.888;11.464;2022-08-27T05:07:07;21.00;99.90
612;DHT22;293;53.888;11.464;2022-08-27T05:09:36;21.00;99.90
612;DHT22;293;53.888;11.464;2022-08-27T05:12:04;21.00;99.90
612;DHT22;293;53.888;11.464;2022-08-27T05:14:30;20.90;99.90
612;DHT22;293;53.888;11.464;2022-08-27T05:16:58;20.90;99.90
612;DHT22;293;53.888;11.464;2022-08-27T05:19:25;21.00;99.90
612;DHT22;293;53.888;11.464;2022-08-27T05:21:52;21.00;99.90
612;DHT22;293;53.888;11.464;2022-08-27T05:24:20;21.00;99.90
612;DHT22;293;53.888;11.464;2022-08-27T05:26:48;21.00;99.90
612;DHT22;293;53.888;11.464;2022-08-27T05:29:16;21.10;99.90
612;DHT22;293;53.888;11.464;2022-08-27T05:31:43;21.10;99.90
612;DHT22;293;53.888;11.464;2022-08-27T05:34:13;21.10;99.90
612;DHT22;293;53.888;11.464;2022-08-27T05:36:40;21.30;99.90
612;DHT22;293;53.888;11.464;2022-08-27T05:39:07;21.30;99.90
612;DHT22;293;53.888;11.464;2022-08-27T05:41:35;21.40;99.90
612;DHT22;293;53.888;11.464;2022-08-27T05:44:06;21.40;99.90
612;DHT22;293;53.888;11.464;2022-08-27T05:46:37;21.40;99.90
612;DHT22;293;53.888;11.464;2022-08-27T05:49:04;21.40;99.90
612;DHT22;293;53.888;11.464;2022-08-27T05:51:33;21.50;99.90
612;DHT22;293;53.888;11.464;2022-08-27T05:54:02;21.70;99.90
612;DHT22;293;53.888;11.464;2022-08-27T05:56:32;21.90;99.90
612;DHT22;293;53.888;11.464;2022-08-27T05:58:59;21.90;99.90
612;DHT22;293;53.888;11.464;2022-08-27T06:01:47;22.00;99.90
612;DHT22;293;53.888;11.464;2022-08-27T06:04:15;22.10;99.90
612;DHT22;293;53.888;11.464;2022-08-27T06:06:43;22.20;99.90
612;DHT22;293;53.888;11.464;2022-08-27T06:09:12;22.10;99.90
612;DHT22;293;53.888;11.464;2022-08-27T06:11:39;22.10;99.90
612;DHT22;293;53.888;11.464;2022-08-27T06:14:07;22.00;99.90
612;DHT22;293;53.888;11.464;2022-08-27T06:16:35;21.80;99.90
612;DHT22;293;53.888;11.464;2022-08-27T06:19:04;21.80;99.90
612;DHT22;293;53.888;11.464;2022-08-27T06:21:32;21.80;99.90
612;DHT22;293;53.888;11.464;2022-08-27T06:23:59;21.70;99.90
612;DHT22;293;53.888;11.464;2022-08-27T06:26:26;21.60;99.90
612;DHT22;293;53.888;11.464;2022-08-27T06:28:53;21.70;99.90
612;DHT22;293;53.888;11.464;2022-08-27T06:31:23;21.70;99.90
612;DHT22;293;53.888;11.464;2022-08-27T06:33:51;21.70;99.90
612;DHT22;293;53.888;11.464;2022-08-27T06:36:22;21.60;99.90
612;DHT22;293;53.888;11.464;2022-08-27T06:38:50;21.60;99.90
612;DHT22;293;53.888;11.464;2022-08-27T06:41:18;21.60;99.90
612;DHT22;293;53.888;11.464;2022-08-27T06:43:45;21.70;99.90
612;DHT22;293;53.888;11.464;2022-08-27T06:46:14;21.80;99.90
612;DHT22;293;53.888;11.464;2022-08-27T06:48:42;21.90;99.90
612;DHT22;293;53.888;11.464;2022-08-27T06:51:18;22.10;99.90
612;DHT22;293;53.888;11.464;2022-08-27T06:53:47;22.10;99.90
612;DHT22;293;53.888;11.464;2022-08-27T06:56:15;22.20;99.90
612;DHT22;293;53.888;11.464;2022-08-27T06:58:42;22.20;99.90
612;DHT22;293;53.888;11.464;2022-08-27T07:01:13;22.20;99.90
612;DHT22;293;53.888;11.464;2022-08-27T07:03:41;22.10;99.90
612;DHT22;293;53.888;11.464;2022-08-27T07:06:09;22.10;99.90
612;DHT22;293;53.888;11.464;2022-08-27T07:08:37;22.30;99.90
612;DHT22;293;53.888;11.464;2022-08-27T07:11:06;22.30;99.90
612;DHT22;293;53.888;11.464;2022-08-27T07:13:34;22.40;99.90
612;DHT22;293;53.888;11.464;2022-08-27T07:16:03;22.30;99.90
612;DHT22;293;53.888;11.464;2022-08-27T07:18:30;22.30;99.90
612;DHT22;293;53.888;11.464;2022-08-27T07:20:57;22.20;99.90
612;DHT22;293;53.888;11.464;2022-08-27T07:23:25;22.10;99.90
612;DHT22;293;53.888;11.464;2022-08-27T07:25:52;22.10;99.90
612;DHT22;293;53.888;11.464;2022-08-27T07:28:20;22.20;99.90
612;DHT22;293;53.888;11.464;2022-08-27T07:30:47;22.20;99.90
612;DHT22;293;53.888;11.464;2022-08-27T07:33:14;22.10;99.90
612;DHT22;293;53.888;11.464;2022-08-27T07:35:40;22.10;99.90
612;DHT22;293;53.888;11.464;2022-08-27T07:38:09;22.20;99.90
612;DHT22;293;53.888;11.464;2022-08-27T07:40:36;22.30;99.90
612;DHT22;293;53.888;11.464;2022-08-27T07:43:04;22.40;99.90
612;DHT22;293;53.888;11.464;2022-08-27T07:45:49;22.50;99.90
612;DHT22;293;53.888;11.464;2022-08-27T07:48:21;22.40;99.90
612;DHT22;293;53.888;11.464;2022-08-27T07:50:48;22.40;99.90
612;DHT22;293;53.888;11.464;2022-08-27T07:53:15;22.40;99.90
612;DHT22;293;53.888;11.464;2022-08-27T07:55:42;22.40;99.90
612;DHT22;293;53.888;11.464;2022-08-27T07:58:09;22.30;99.90
612;DHT22;293;53.888;11.464;2022-08-27T08:00:40;22.40;99.90
612;DHT22;293;53.888;11.464;2022-08-27T08:03:08;22.30;99.90
612;DHT22;293;53.888;11.464;2022-08-27T08:05:35;22.40;99.90
612;DHT22;293;53.888;11.464;2022-08-27T08:08:02;22.40;99.90
612;DHT22;293;53.888;11.464;2022-08-27T08:10:29;22.40;99.90
612;DHT22;293;53.888;11.464;2022-08-27T08:12:56;22.50;99.90
612;DHT22;293;53.888;11.464;2022-08-27T08:15:23;22.60;99.90
612;DHT22;293;53.888;11.464;2022-08-27T08:17:49;22.80;99.90
612;DHT22;293;53.888;11.464;2022-08-27T08:20:18;22.80;99.90
612;DHT22;293;53.888;11.464;2022-08-27T08:22:45;22.80;99.90
612;DHT22;293;53.888;11.464;2022-08-27T08:25:13;22.80;99.90
612;DHT22;293;53.888;11.464;2022-08-27T08:27:40;22.70;99.90
612;DHT22;293;53.888;11.464;2022-08-27T08:30:08;22.60;99.90
612;DHT22;293;53.888;11.464;2022-08-27T08:32:35;22.60;99.90
612;DHT22;293;53.888;11.464;2022-08-27T08:35:03;22.60;99.90
612;DHT22;293;53.888;11.464;2022-08-27T08:37:31;22.70;99.90
612;DHT22;293;53.888;11.464;2022-08-27T08:39:58;22.60;99.90
612;DHT22;293;53.888;11.464;2022-08-27T08:42:30;22.40;99.90
612;DHT22;293;53.888;11.464;2022-08-27T08:45:01;22.30;99.90
612;DHT22;293;53.888;11.464;2022-08-27T08:47:31;22.30;99.90
612;DHT22;293;53.888;11.464;2022-08-27T08:50:05;22.30;99.90
612;DHT22;293;53.888;11.464;2022-08-27T08:52:42;22.40;99.90
612;DHT22;293;53.888;11.464;2022-08-27T08:55:28;22.50;99.90
612;DHT22;293;53.888;11.464;2022-08-27T08:58:06;22.50;99.90
612;DHT22;293;53.888;11.464;2022-08-27T09:00:36;22.60;99.90
612;DHT22;293;53.888;11.464;2022-08-27T09:03:04;22.70;99.90
612;DHT22;293;53.888;11.464;2022-08-27T09:05:31;22.90;99.90
612;DHT22;293;53.888;11.464;2022-08-27T09:08:05;22.90;99.90
612;DHT22;293;53.888;11.464;2022-08-27T09:10:45;22.90;99.90
612;DHT22;293;53.888;11.464;2022-08-27T09:13:19;22.70;99.90
612;DHT22;293;53.888;11.464;2022-08-27T09:15:47;22.60;99.90
612;DHT22;293;53.888;11.464;2022-08-27T09:18:15;22.60;99.90
612;DHT22;293;53.888;11.464;2022-08-27T09:20:49;22.60;99.90
612;DHT22;293;53.888;11.464;2022-08-27T09:23:25;22.70;99.90
612;DHT22;293;53.888;11.464;2022-08-27T09:25:52;22.60;99.90
612;DHT22;293;53.888;11.464;2022-08-27T09:28:23;22.50;99.90
612;DHT22;293;53.888;11.464;2022-08-27T09:31:08;22.30;99.90
612;DHT22;293;53.888;11.464;2022-08-27T09:33:37;22.10;99.90
612;DHT22;293;53.888;11.464;2022-08-27T09:36:08;22.10;99.90
612;DHT22;293;53.888;11.464;2022-08-27T09:38:40;22.10;99.90
612;DHT22;293;53.888;11.464;2022-08-27T09:41:11;22.10;99.90
612;DHT22;293;53.888;11.464;2022-08-27T09:43:42;22.10;99.90
612;DHT22;293;53.888;11.464;2022-08-27T09:46:18;22.20;99.90
612;DHT22;293;53.888;11.464;2022-08-27T09:48:46;22.20;99.90
612;DHT22;293;53.888;11.464;2022-08-27T09:51:15;22.20;99.90
612;DHT22;293;53.888;11.464;2022-08-27T09:53:47;22.10;99.90
612;DHT22;293;53.888;11.464;2022-08-27T09:56:22;22.10;99.90
612;DHT22;293;53.888;11.464;2022-08-27T09:58:53;22.10;99.90
612;DHT22;293;53.888;11.464;2022-08-27T10:01:22;22.20;99.90
612;DHT22;293;53.888;11.464;2022-08-27T10:03:50;22.20;99.90
612;DHT22;293;53.888;11.464;2022-08-27T10:06:29;22.20;99.90
612;DHT22;293;53.888;11.464;2022-08-27T10:09:02;22.30;99.90
612;DHT22;293;53.888;11.464;2022-08-27T10:11:35;22.40;99.90
612;DHT22;293;53.888;11.464;2022-08-27T10:14:07;22.50;99.90
612;DHT22;293;53.888;11.464;2022-08-27T10:16:54;22.50;99.90
612;DHT22;293;53.888;11.464;2022-08-27T10:19:45;22.70;99.90
612;DHT22;293;53.888;11.464;2022-08-27T10:22:19;22.70;99.90
612;DHT22;293;53.888;11.464;2022-08-27T10:25:02;22.70;99.90
612;DHT22;293;53.888;11.464;2022-08-27T10:27:38;22.60;99.90
612;DHT22;293;53.888;11.464;2022-08-27T10:30:11;22.60;99.90
612;DHT22;293;53.888;11.464;2022-08-27T10:32:50;22.60;99.90
612;DHT22;293;53.888;11.464;2022-08-27T10:35:22;22.50;99.90
612;DHT22;293;53.888;11.464;2022-08-27T10:37:57;22.40;99.90
612;DHT22;293;53.888;11.464;2022-08-27T10:40:34;22.30;99.90
612;DHT22;293;53.888;11.464;2022-08-27T10:43:14;22.10;99.90
612;DHT22;293;53.888;11.464;2022-08-27T10:45:47;22.10;99.90
612;DHT22;293;53.888;11.464;2022-08-27T10:48:21;22.00;99.90
612;DHT22;293;53.888;11.464;2022-08-27T10:50:55;21.80;99.90
612;DHT22;293;53.888;11.464;2022-08-27T10:53:29;21.70;99.90
612;DHT22;293;53.888;11.464;2022-08-27T10:56:07;21.50;99.90
612;DHT22;293;53.888;11.464;2022-08-27T10:58:47;21.40;99.90
612;DHT22;293;53.888;11.464;2022-08-27T11:01:22;21.40;99.90
612;DHT22;293;53.888;11.464;2022-08-27T11:03:55;21.30;99.90
612;DHT22;293;53.888;11.464;2022-08-27T11:06:29;21.20;99.90
612;DHT22;293;53.888;11.464;2022-08-27T11:08:59;21.10;99.90
612;DHT22;293;53.888;11.464;2022-08-27T11:11:35;21.10;99.90
612;DHT22;293;53.888;11.464;2022-08-27T11:14:06;21.10;99.90
612;DHT22;293;53.888;11.464;2022-08-27T11:16:40;21.10;99.90
612;DHT22;293;53.888;11.464;2022-08-27T11:19:13;21.10;99.90
612;DHT22;293;53.888;11.464;2022-08-27T11:21:45;21.10;99.90
612;DHT22;293;53.888;11.464;2022-08-27T11:24:24;21.10;99.90
612;DHT22;293;53.888;11.464;2022-08-27T11:26:57;21.20;99.90
612;DHT22;293;53.888;11.464;2022-08-27T11:29:29;21.10;99.90
612;DHT22;293;53.888;11.464;2022-08-27T11:32:02;21.10;99.90
612;DHT22;293;53.888;11.464;2022-08-27T11:34:37;21.00;99.90
612;DHT22;293;53.888;11.464;2022-08-27T11:37:15;21.00;99.90
612;DHT22;293;53.888;11.464;2022-08-27T11:39:56;21.00;99.90
612;DHT22;293;53.888;11.464;2022-08-27T11:42:34;20.90;99.90
612;DHT22;293;53.888;11.464;2022-08-27T11:45:05;20.90;99.90
612;DHT22;293;53.888;11.464;2022-08-27T11:47:33;20.90;99.90
612;DHT22;293;53.888;11.464;2022-08-27T11:50:03;20.90;99.90
612;DHT22;293;53.888;11.464;2022-08-27T11:52:37;20.90;99.90
612;DHT22;293;53.888;11.464;2022-08-27T11:55:13;20.80;99.90
612;DHT22;293;53.888;11.464;2022-08-27T11:58:04;20.80;99.90
612;DHT22;293;53.888;11.464;2022-08-27T12:00:33;20.80;99.90
612;DHT22;293;53.888;11.464;2022-08-27T12:03:03;20.90;99.90
612;DHT22;293;53.888;11.464;2022-08-27T12:05:39;20.90;99.90
612;DHT22;293;53.888;11.464;2022-08-27T12:08:26;21.00;99.90
612;DHT22;293;53.888;11.464;2022-08-27T12:11:15;21.00;99.90
612;DHT22;293;53.888;11.464;2022-08-27T12:13:53;21.00;99.90
612;DHT22;293;53.888;11.464;2022-08-27T12:16:27;21.00;99.90
612;DHT22;293;53.888;11.464;2022-08-27T12:19:04;21.00;99.90
612;DHT22;293;53.888;11.464;2022-08-27T12:21:45;20.90;99.90
612;DHT22;293;53.888;11.464;2022-08-27T12:24:27;21.00;99.90
612;DHT22;293;53.888;11.464;2022-08-27T12:27:11;20.90;99.90
612;DHT22;293;53.888;11.464;2022-08-27T12:29:45;20.90;99.90
612;DHT22;293;53.888;11.464;2022-08-27T12:32:23;21.00;99.90
612;DHT22;293;53.888;11.464;2022-08-27T12:34:56;21.00;99.90
612;DHT22;293;53.888;11.464;2022-08-27T12:37:27;21.10;99.90
612;DHT22;293;53.888;11.464;2022-08-27T12:39:57;21.10;99.90
612;DHT22;293;53.888;11.464;2022-08-27T12:42:25;21.10;99.90
612;DHT22;293;53.888;11.464;2022-08-27T12:44:56;21.10;99.90
612;DHT22;293;53.888;11.464;2022-08-27T12:47:24;21.20;99.90
612;DHT22;293;53.888;11.464;2022-08-27T12:49:54;21.20;99.90
612;DHT22;293;53.888;11.464;2022-08-27T12:52:46;21.30;99.90
612;DHT22;293;53.888;11.464;2022-08-27T12:55:25;21.40;99.90
612;DHT22;293;53.888;11.464;2022-08-27T12:57:59;21.40;99.90
612;DHT22;293;53.888;11.464;2022-08-27T13:00:35;21.40;99.90
612;DHT22;293;53.888;11.464;2022-08-27T13:03:25;21.40;99.90
612;DHT22;293;53.888;11.464;2022-08-27T13:05:54;21.40;99.90
612;DHT22;293;53.888;11.464;2022-08-27T13:08:27;21.40;99.90
612;DHT22;293;53.888;11.464;2022-08-27T13:10:55;21.40;99.90
612;DHT22;293;53.888;11.464;2022-08-27T13:13:24;21.50;99.90
612;DHT22;293;53.888;11.464;2022-08-27T13:15:55;21.60;99.90
612;DHT22;293;53.888;11.464;2022-08-27T13:18:23;21.60;99.90
612;DHT22;293;53.888;11.464;2022-08-27T13:21:00;21.60;99.90
612;DHT22;293;53.888;11.464;2022-08-27T13:23:29;21.70;99.90
612;DHT22;293;53.888;11.464;2022-08-27T13:26:02;21.80;99.90
612;DHT22;293;53.888;11.464;2022-08-27T13:28:30;21.90;99.90
612;DHT22;293;53.888;11.464;2022-08-27T13:30:59;22.00;99.90
612;DHT22;293;53.888;11.464;2022-08-27T13:33:29;22.00;99.90
612;DHT22;293;53.888;11.464;2022-08-27T13:35:57;22.00;99.90
612;DHT22;293;53.888;11.464;2022-08-27T13:38:27;22.10;99.90
612;DHT22;293;53.888;11.464;2022-08-27T13:40:57;22.20;99.90
612;DHT22;293;53.888;11.464;2022-08-27T13:43:36;22.10;99.90
612;DHT22;293;53.888;11.464;2022-08-27T13:46:08;22.20;99.90
612;DHT22;293;53.888;11.464;2022-08-27T13:48:39;22.20;99.90
612;DHT22;293;53.888;11.464;2022-08-27T13:51:06;22.30;99.90
612;DHT22;293;53.888;11.464;2022-08-27T13:53:34;22.30;99.90
612;DHT22;293;53.888;11.464;2022-08-27T13:56:27;22.40;99.90
612;DHT22;293;53.888;11.464;2022-08-27T13:58:54;22.50;99.90
612;DHT22;293;53.888;11.464;2022-08-27T14:01:27;22.60;99.90
612;DHT22;293;53.888;11.464;2022-08-27T14:03:58;22.60;99.90
612;DHT22;293;53.888;11.464;2022-08-27T14:06:28;22.70;99.90
612;DHT22;293;53.888;11.464;2022-08-27T14:08:56;22.70;99.90
612;DHT22;293;53.888;11.464;2022-08-27T14:11:24;22.60;99.90
612;DHT22;293;53.888;11.464;2022-08-27T14:13:54;22.70;99.90
612;DHT22;293;53.888;11.464;2022-08-27T14:16:28;22.60;99.90
612;DHT22;293;53.888;11.464;2022-08-27T14:19:04;22.50;99.90
612;DHT22;293;53.888;11.464;2022-08-27T14:21:31;22.50;99.90
612;DHT22;293;53.888;11.464;2022-08-27T14:23:58;22.40;99.90
612;DHT22;293;53.888;11.464;2022-08-27T14:26:25;22.40;99.90
612;DHT22;293;53.888;11.464;2022-08-27T14:28:52;22.40;99.90
612;DHT22;293;53.888;11.464;2022-08-27T14:31:20;22.40;99.90
612;DHT22;293;53.888;11.464;2022-08-27T14:33:49;22.50;99.90
612;DHT22;293;53.888;11.464;2022-08-27T14:36:17;22.50;99.90
612;DHT22;293;53.888;11.464;2022-08-27T14:38:45;22.50;99.90
612;DHT22;293;53.888;11.464;2022-08-27T14:41:13;22.40;99.90
612;DHT22;293;53.888;11.464;2022-08-27T14:43:41;22.40;99.90
612;DHT22;293;53.888;11.464;2022-08-27T14:46:16;22.50;99.90
612;DHT22;293;53.888;11.464;2022-08-27T14:48:44;22.40;99.90
612;DHT22;293;53.888;11.464;2022-08-27T14:51:17;22.40;99.90
612;DHT22;293;53.888;11.464;2022-08-27T14:53:45;22.30;99.90
612;DHT22;293;53.888;11.464;2022-08-27T14:56:12;22.30;99.90
612;DHT22;293;53.888;11.464;2022-08-27T14:58:39;22.30;99.90
612;DHT22;293;53.888;11.464;2022-08-27T15:01:06;22.30;99.90
612;DHT22;293;53.888;11.464;2022-08-27T15:03:37;22.20;99.90
612;DHT22;293;53.888;11.464;2022-08-27T15:06:05;22.30;99.90
612;DHT22;293;53.888;11.464;2022-08-27T15:08:33;22.20;99.90
612;DHT22;293;53.888;11.464;2022-08-27T15:11:00;22.30;99.90
612;DHT22;293;53.888;11.464;2022-08-27T15:13:29;22.30;99.90
612;DHT22;293;53.888;11.464;2022-08-27T15:15:55;22.30;99.90
612;DHT22;293;53.888;11.464;2022-08-27T15:18:22;22.30;99.90
612;DHT22;293;53.888;11.464;2022-08-27T15:20:49;22.20;99.90
612;DHT22;293;53.888;11.464;2022-08-27T15:23:17;22.20;99.90
612;DHT22;293;53.888;11.464;2022-08-27T15:25:45;22.20;99.90
612;DHT22;293;53.888;11.464;2022-08-27T15:28:12;22.30;99.90
612;DHT22;293;53.888;11.464;2022-08-27T15:30:40;22.40;99.90
612;DHT22;293;53.888;11.464;2022-08-27T15:33:07;22.50;99.90
612;DHT22;293;53.888;11.464;2022-08-27T15:35:34;22.50;99.90
612;DHT22;293;53.888;11.464;2022-08-27T15:38:01;22.60;99.90
612;DHT22;293;53.888;11.464;2022-08-27T15:40:31;22.70;99.90
612;DHT22;293;53.888;11.464;2022-08-27T15:43:02;22.80;99.90
612;DHT22;293;53.888;11.464;2022-08-27T15:45:30;22.80;99.90
612;DHT22;293;53.888;11.464;2022-08-27T15:47:57;22.60;99.90
612;DHT22;293;53.888;11.464;2022-08-27T15:50:25;22.60;99.90
612;DHT22;293;53.888;11.464;2022-08-27T15:52:56;22.50;99.90
612;DHT22;293;53.888;11.464;2022-08-27T15:55:26;22.50;99.90
612;DHT22;293;53.888;11.464;2022-08-27T15:57:53;22.60;99.90
612;DHT22;293;53.888;11.464;2022-08-27T16:00:23;22.50;99.90
612;DHT22;293;53.888;11.464;2022-08-27T16:02:51;22.60;99.90
612;DHT22;293;53.888;11.464;2022-08-27T16:05:19;22.70;99.90
612;DHT22;293;53.888;11.464;2022-08-27T16:07:46;22.60;99.90
612;DHT22;293;53.888;11.464;2022-08-27T16:10:14;22.50;99.90
612;DHT22;293;53.888;11.464;2022-08-27T16:12:42;22.40;99.90
612;DHT22;293;53.888;11.464;2022-08-27T16:15:10;22.50;99.90
612;DHT22;293;53.888;11.464;2022-08-27T16:17:38;22.50;99.90
612;DHT22;293;53.888;11.464;2022-08-27T16:20:08;22.50;99.90
612;DHT22;293;53.888;11.464;2022-08-27T16:22:36;22.50;99.90
612;DHT22;293;53.888;11.464;2022-08-27T16:25:05;22.30;99.90
612;DHT22;293;53.888;11.464;2022-08-27T16:27:32;22.20;99.90
612;DHT22;293;53.888;11.464;2022-08-27T16:29:59;22.10;99.90
612;DHT22;293;53.888;11.464;2022-08-27T16:32:27;22.10;99.90
612;DHT22;293;53.888;11.464;2022-08-27T16:34:55;22.10;99.90